sensor_id;sensor_type;location;lat;lon;timestamp;P1;durP1;ratioP1;P2;durP2;ratioP2
18336;SDS011;9294;51.106;7.028;2023-12-04T00:01:29;4.72;;;4.43;;
18336;SDS011;9294;51.106;7.028;2023-12-04T00:03:55;4.35;;;4.07;;
18336;SDS011;9294;51.106;7.028;2023-12-04T00:06:22;4.28;;;4.05;;
18336;SDS011;9294;51.106;7.028;2023-12-04T00:08:49;4.38;;;4.18;;
18336;SDS011;9294;51.106;7.028;2023-12-04T00:11:16;4.05;;;3.80;;
18336;SDS011;9294;51.106;7.028;2023-12-04T00:13:44;4.05;;;3.85;;
18336;SDS011;9294;51.106;7.028;2023-12-04T00:16:10;4.38;;;4.07;;
18336;SDS011;9294;51.106;7.028;2023-12-04T00:18:37;3.88;;;3.67;;
18336;SDS011;9294;51.106;7.028;2023-12-04T00:21:04;4.20;;;4.00;;
18336;SDS011;9294;51.106;7.028;2023-12-04T00:23:31;4.35;;;4.05;;
18336;SDS011;9294;51.106;7.028;2023-12-04T00:25:58;4.10;;;3.90;;
18336;SDS011;9294;51.106;7.028;2023-12-04T00:28:24;3.83;;;3.63;;
18336;SDS011;9294;51.106;7.028;2023-12-04T00:30:55;4.30;;;4.00;;
18336;SDS011;9294;51.106;7.028;2023-12-04T00:33:21;4.63;;;4.32;;
18336;SDS011;9294;51.106;7.028;2023-12-04T00:35:48;4.13;;;3.92;;
18336;SDS011;9294;51.106;7.028;2023-12-04T00:38:15;4.10;;;3.90;;
18336;SDS011;9294;51.106;7.028;2023-12-04T00:40:42;3.90;;;3.70;;
18336;SDS011;9294;51.106;7.028;2023-12-04T00:43:08;4.55;;;4.35;;
18336;SDS011;9294;51.106;7.028;2023-12-04T00:45:35;4.80;;;4.50;;
18336;SDS011;9294;51.106;7.028;2023-12-04T00:48:03;4.32;;;4.13;;
18336;SDS011;9294;51.106;7.028;2023-12-04T00:50:30;4.30;;;4.05;;
18336;SDS011;9294;51.106;7.028;2023-12-04T00:52:57;4.03;;;3.83;;
18336;SDS011;9294;51.106;7.028;2023-12-04T00:55:23;4.25;;;4.05;;
18336;SDS011;9294;51.106;7.028;2023-12-04T00:57:50;3.80;;;3.60;;
18336;SDS011;9294;51.106;7.028;2023-12-04T01:00:17;4.30;;;4.10;;
18336;SDS011;9294;51.106;7.028;2023-12-04T01:02:44;4.55;;;4.25;;
18336;SDS011;9294;51.106;7.028;2023-12-04T01:05:12;4.50;;;4.20;;
18336;SDS011;9294;51.106;7.028;2023-12-04T01:07:39;3.83;;;3.63;;
18336;SDS011;9294;51.106;7.028;2023-12-04T01:10:06;4.60;;;4.30;;
18336;SDS011;9294;51.106;7.028;2023-12-04T01:12:33;4.18;;;3.97;;
18336;SDS011;9294;51.106;7.028;2023-12-04T01:15:00;3.92;;;3.63;;
18336;SDS011;9294;51.106;7.028;2023-12-04T01:17:27;4.70;;;4.40;;
18336;SDS011;9294;51.106;7.028;2023-12-04T01:19:53;4.03;;;3.80;;
18336;SDS011;9294;51.106;7.028;2023-12-04T01:22:21;4.15;;;3.95;;
18336;SDS011;9294;51.106;7.028;2023-12-04T01:24:48;4.32;;;4.03;;
18336;SDS011;9294;51.106;7.028;2023-12-04T01:27:15;4.13;;;3.85;;
18336;SDS011;9294;51.106;7.028;2023-12-04T01:29:41;4.20;;;4.00;;
18336;SDS011;9294;51.106;7.028;2023-12-04T01:32:08;3.75;;;3.55;;
18336;SDS011;9294;51.106;7.028;2023-12-04T01:34:35;4.35;;;4.05;;
18336;SDS011;9294;51.106;7.028;2023-12-04T01:37:01;3.60;;;3.40;;
18336;SDS011;9294;51.106;7.028;2023-12-04T01:39:30;3.65;;;3.45;;
18336;SDS011;9294;51.106;7.028;2023-12-04T01:41:56;4.45;;;4.15;;
18336;SDS011;9294;51.106;7.028;2023-12-04T01:44:23;4.47;;;4.18;;
18336;SDS011;9294;51.106;7.028;2023-12-04T01:46:50;4.15;;;3.95;;
18336;SDS011;9294;51.106;7.028;2023-12-04T01:49:17;3.75;;;3.55;;
18336;SDS011;9294;51.106;7.028;2023-12-04T01:51:44;4.50;;;4.20;;
18336;SDS011;9294;51.106;7.028;2023-12-04T01:54:12;3.80;;;3.60;;
18336;SDS011;9294;51.106;7.028;2023-12-04T01:56:40;4.20;;;3.90;;
18336;SDS011;9294;51.106;7.028;2023-12-04T01:59:07;3.38;;;3.28;;
18336;SDS011;9294;51.106;7.028;2023-12-04T02:01:33;3.83;;;3.63;;
18336;SDS011;9294;51.106;7.028;2023-12-04T02:04:01;3.90;;;3.70;;
18336;SDS011;9294;51.106;7.028;2023-12-04T02:06:29;4.07;;;3.88;;
18336;SDS011;9294;51.106;7.028;2023-12-04T02:08:56;3.85;;;3.65;;
18336;SDS011;9294;51.106;7.028;2023-12-04T02:11:23;3.95;;;3.75;;
18336;SDS011;9294;51.106;7.028;2023-12-04T02:13:51;4.35;;;4.05;;
18336;SDS011;9294;51.106;7.028;2023-12-04T02:16:18;4.20;;;4.00;;
18336;SDS011;9294;51.106;7.028;2023-12-04T02:18:45;3.95;;;3.75;;
18336;SDS011;9294;51.106;7.028;2023-12-04T02:21:12;4.10;;;3.90;;
18336;SDS011;9294;51.106;7.028;2023-12-04T02:23:39;4.55;;;4.25;;
18336;SDS011;9294;51.106;7.028;2023-12-04T02:26:09;4.00;;;3.70;;
18336;SDS011;9294;51.106;7.028;2023-12-04T02:28:40;3.90;;;3.70;;
18336;SDS011;9294;51.106;7.028;2023-12-04T02:31:08;4.72;;;4.43;;
18336;SDS011;9294;51.106;7.028;2023-12-04T02:33:36;3.78;;;3.58;;
18336;SDS011;9294;51.106;7.028;2023-12-04T02:36:06;3.90;;;3.70;;
18336;SDS011;9294;51.106;7.028;2023-12-04T02:38:35;4.03;;;3.83;;
18336;SDS011;9294;51.106;7.028;2023-12-04T02:41:03;3.80;;;3.58;;
18336;SDS011;9294;51.106;7.028;2023-12-04T02:43:31;3.75;;;3.55;;
18336;SDS011;9294;51.106;7.028;2023-12-04T02:45:58;3.83;;;3.63;;
18336;SDS011;9294;51.106;7.028;2023-12-04T02:48:25;3.83;;;3.63;;
18336;SDS011;9294;51.106;7.028;2023-12-04T02:50:52;4.18;;;3.92;;
18336;SDS011;9294;51.106;7.028;2023-12-04T02:53:18;4.13;;;3.92;;
18336;SDS011;9294;51.106;7.028;2023-12-04T02:55:45;3.45;;;3.35;;
18336;SDS011;9294;51.106;7.028;2023-12-04T02:58:12;3.78;;;3.60;;
18336;SDS011;9294;51.106;7.028;2023-12-04T03:00:40;4.28;;;3.97;;
18336;SDS011;9294;51.106;7.028;2023-12-04T03:03:06;4.22;;;4.00;;
18336;SDS011;9294;51.106;7.028;2023-12-04T03:05:33;3.92;;;3.72;;
18336;SDS011;9294;51.106;7.028;2023-12-04T03:08:00;4.05;;;3.70;;
18336;SDS011;9294;51.106;7.028;2023-12-04T03:10:26;3.75;;;3.55;;
18336;SDS011;9294;51.106;7.028;2023-12-04T03:12:53;4.00;;;3.80;;
18336;SDS011;9294;51.106;7.028;2023-12-04T03:15:20;3.85;;;3.65;;
18336;SDS011;9294;51.106;7.028;2023-12-04T03:17:48;3.70;;;3.50;;
18336;SDS011;9294;51.106;7.028;2023-12-04T03:20:14;4.38;;;4.10;;
18336;SDS011;9294;51.106;7.028;2023-12-04T03:22:41;4.10;;;3.90;;
18336;SDS011;9294;51.106;7.028;2023-12-04T03:25:09;3.95;;;3.75;;
18336;SDS011;9294;51.106;7.028;2023-12-04T03:27:35;4.28;;;4.03;;
18336;SDS011;9294;51.106;7.028;2023-12-04T03:30:02;4.13;;;3.90;;
18336;SDS011;9294;51.106;7.028;2023-12-04T03:32:30;4.07;;;3.88;;
18336;SDS011;9294;51.106;7.028;2023-12-04T03:34:58;3.80;;;3.60;;
18336;SDS011;9294;51.106;7.028;2023-12-04T03:37:26;3.60;;;3.40;;
18336;SDS011;9294;51.106;7.028;2023-12-04T03:39:52;3.88;;;3.67;;
18336;SDS011;9294;51.106;7.028;2023-12-04T03:42:19;4.10;;;3.80;;
18336;SDS011;9294;51.106;7.028;2023-12-04T03:44:46;3.92;;;3.63;;
18336;SDS011;9294;51.106;7.028;2023-12-04T03:47:12;3.67;;;3.47;;
18336;SDS011;9294;51.106;7.028;2023-12-04T03:49:39;3.85;;;3.65;;
18336;SDS011;9294;51.106;7.028;2023-12-04T03:52:07;4.05;;;3.85;;
18336;SDS011;9294;51.106;7.028;2023-12-04T03:54:34;3.88;;;3.67;;
18336;SDS011;9294;51.106;7.028;2023-12-04T03:57:00;3.78;;;3.58;;
18336;SDS011;9294;51.106;7.028;2023-12-04T03:59:27;3.65;;;3.45;;
18336;SDS011;9294;51.106;7.028;2023-12-04T04:01:54;3.53;;;3.33;;
18336;SDS011;9294;51.106;7.028;2023-12-04T04:04:20;4.22;;;3.92;;
18336;SDS011;9294;51.106;7.028;2023-12-04T04:06:47;3.72;;;3.53;;
18336;SDS011;9294;51.106;7.028;2023-12-04T04:09:15;3.90;;;3.70;;
18336;SDS011;9294;51.106;7.028;2023-12-04T04:11:42;3.60;;;3.42;;
18336;SDS011;9294;51.106;7.028;2023-12-04T04:14:08;3.85;;;3.65;;
18336;SDS011;9294;51.106;7.028;2023-12-04T04:16:35;4.25;;;4.00;;
18336;SDS011;9294;51.106;7.028;2023-12-04T04:19:02;3.63;;;3.42;;
18336;SDS011;9294;51.106;7.028;2023-12-04T04:21:28;4.13;;;3.90;;
18336;SDS011;9294;51.106;7.028;2023-12-04T04:23:55;3.63;;;3.42;;
18336;SDS011;9294;51.106;7.028;2023-12-04T04:26:23;3.65;;;3.45;;
18336;SDS011;9294;51.106;7.028;2023-12-04T04:28:50;3.60;;;3.40;;
18336;SDS011;9294;51.106;7.028;2023-12-04T04:31:16;4.10;;;3.90;;
18336;SDS011;9294;51.106;7.028;2023-12-04T04:33:43;3.67;;;3.47;;
18336;SDS011;9294;51.106;7.028;2023-12-04T04:36:10;3.28;;;3.10;;
18336;SDS011;9294;51.106;7.028;2023-12-04T04:38:38;4.13;;;3.83;;
18336;SDS011;9294;51.106;7.028;2023-12-04T04:41:05;3.30;;;3.15;;
18336;SDS011;9294;51.106;7.028;2023-12-04T04:43:34;3.95;;;3.65;;
18336;SDS011;9294;51.106;7.028;2023-12-04T04:46:00;3.72;;;3.53;;
18336;SDS011;9294;51.106;7.028;2023-12-04T04:48:27;3.67;;;3.47;;
18336;SDS011;9294;51.106;7.028;2023-12-04T04:50:54;3.13;;;3.00;;
18336;SDS011;9294;51.106;7.028;2023-12-04T04:53:20;3.40;;;3.20;;
18336;SDS011;9294;51.106;7.028;2023-12-04T04:55:47;3.40;;;3.20;;
18336;SDS011;9294;51.106;7.028;2023-12-04T04:58:14;3.33;;;3.13;;
18336;SDS011;9294;51.106;7.028;2023-12-04T05:00:43;3.10;;;2.90;;
18336;SDS011;9294;51.106;7.028;2023-12-04T05:03:09;3.22;;;3.03;;
18336;SDS011;9294;51.106;7.028;2023-12-04T05:05:36;3.72;;;3.45;;
18336;SDS011;9294;51.106;7.028;2023-12-04T05:08:03;3.15;;;3.05;;
18336;SDS011;9294;51.106;7.028;2023-12-04T05:10:30;3.03;;;2.90;;
18336;SDS011;9294;51.106;7.028;2023-12-04T05:12:57;2.92;;;2.83;;
18336;SDS011;9294;51.106;7.028;2023-12-04T05:15:23;3.45;;;3.25;;
18336;SDS011;9294;51.106;7.028;2023-12-04T05:17:52;3.10;;;2.97;;
18336;SDS011;9294;51.106;7.028;2023-12-04T05:20:19;3.50;;;3.30;;
18336;SDS011;9294;51.106;7.028;2023-12-04T05:22:45;2.80;;;2.70;;
18336;SDS011;9294;51.106;7.028;2023-12-04T05:25:13;2.92;;;2.83;;
18336;SDS011;9294;51.106;7.028;2023-12-04T05:27:40;3.15;;;3.00;;
18336;SDS011;9294;51.106;7.028;2023-12-04T05:30:07;3.25;;;3.08;;
18336;SDS011;9294;51.106;7.028;2023-12-04T05:32:34;3.47;;;3.28;;
18336;SDS011;9294;51.106;7.028;2023-12-04T05:35:03;3.55;;;3.35;;
18336;SDS011;9294;51.106;7.028;2023-12-04T05:37:30;3.63;;;3.40;;
18336;SDS011;9294;51.106;7.028;2023-12-04T05:39:57;3.63;;;3.42;;
18336;SDS011;9294;51.106;7.028;2023-12-04T05:42:23;3.20;;;3.10;;
18336;SDS011;9294;51.106;7.028;2023-12-04T05:44:51;3.47;;;3.28;;
18336;SDS011;9294;51.106;7.028;2023-12-04T05:47:20;3.45;;;3.25;;
18336;SDS011;9294;51.106;7.028;2023-12-04T05:49:46;3.72;;;3.53;;
18336;SDS011;9294;51.106;7.028;2023-12-04T05:52:14;3.30;;;3.10;;
18336;SDS011;9294;51.106;7.028;2023-12-04T05:54:41;3.50;;;3.30;;
18336;SDS011;9294;51.106;7.028;2023-12-04T05:57:08;3.30;;;3.15;;
18336;SDS011;9294;51.106;7.028;2023-12-04T05:59:35;3.47;;;3.28;;
18336;SDS011;9294;51.106;7.028;2023-12-04T06:02:01;3.90;;;3.70;;
18336;SDS011;9294;51.106;7.028;2023-12-04T06:04:28;3.72;;;3.50;;
18336;SDS011;9294;51.106;7.028;2023-12-04T06:06:55;3.88;;;3.67;;
18336;SDS011;9294;51.106;7.028;2023-12-04T06:09:23;2.95;;;2.85;;
18336;SDS011;9294;51.106;7.028;2023-12-04T06:11:50;3.00;;;2.83;;
18336;SDS011;9294;51.106;7.028;2023-12-04T06:14:16;2.95;;;2.75;;
18336;SDS011;9294;51.106;7.028;2023-12-04T06:16:43;3.45;;;3.25;;
18336;SDS011;9294;51.106;7.028;2023-12-04T06:19:10;3.55;;;3.35;;
18336;SDS011;9294;51.106;7.028;2023-12-04T06:21:37;3.70;;;3.40;;
18336;SDS011;9294;51.106;7.028;2023-12-04T06:24:04;5.30;;;3.72;;
18336;SDS011;9294;51.106;7.028;2023-12-04T06:26:35;3.35;;;3.15;;
18336;SDS011;9294;51.106;7.028;2023-12-04T06:29:07;3.83;;;3.63;;
18336;SDS011;9294;51.106;7.028;2023-12-04T06:31:34;6.00;;;3.88;;
18336;SDS011;9294;51.106;7.028;2023-12-04T06:34:01;4.18;;;3.60;;
18336;SDS011;9294;51.106;7.028;2023-12-04T06:36:28;3.78;;;3.47;;
18336;SDS011;9294;51.106;7.028;2023-12-04T06:39:01;3.50;;;3.28;;
18336;SDS011;9294;51.106;7.028;2023-12-04T06:41:29;4.20;;;3.70;;
18336;SDS011;9294;51.106;7.028;2023-12-04T06:43:58;3.42;;;3.25;;
18336;SDS011;9294;51.106;7.028;2023-12-04T06:46:24;3.65;;;3.42;;
18336;SDS011;9294;51.106;7.028;2023-12-04T06:48:54;3.75;;;3.47;;
18336;SDS011;9294;51.106;7.028;2023-12-04T06:51:25;3.45;;;3.25;;
18336;SDS011;9294;51.106;7.028;2023-12-04T06:53:51;3.35;;;3.13;;
18336;SDS011;9294;51.106;7.028;2023-12-04T06:56:18;3.25;;;3.00;;
18336;SDS011;9294;51.106;7.028;2023-12-04T06:58:45;3.30;;;3.10;;
18336;SDS011;9294;51.106;7.028;2023-12-04T07:01:13;3.30;;;3.10;;
18336;SDS011;9294;51.106;7.028;2023-12-04T07:03:40;3.60;;;3.40;;
18336;SDS011;9294;51.106;7.028;2023-12-04T07:06:07;3.47;;;3.22;;
18336;SDS011;9294;51.106;7.028;2023-12-04T07:08:34;3.45;;;3.22;;
18336;SDS011;9294;51.106;7.028;2023-12-04T07:11:02;3.42;;;3.25;;
18336;SDS011;9294;51.106;7.028;2023-12-04T07:13:29;4.30;;;4.00;;
18336;SDS011;9294;51.106;7.028;2023-12-04T07:15:57;4.03;;;3.70;;
18336;SDS011;9294;51.106;7.028;2023-12-04T07:18:26;3.47;;;3.25;;
18336;SDS011;9294;51.106;7.028;2023-12-04T07:20:52;3.40;;;3.20;;
18336;SDS011;9294;51.106;7.028;2023-12-04T07:23:19;3.22;;;3.03;;
18336;SDS011;9294;51.106;7.028;2023-12-04T07:25:46;3.15;;;3.05;;
18336;SDS011;9294;51.106;7.028;2023-12-04T07:28:12;3.90;;;3.60;;
18336;SDS011;9294;51.106;7.028;2023-12-04T07:30:39;5.35;;;4.35;;
18336;SDS011;9294;51.106;7.028;2023-12-04T07:33:06;4.47;;;4.07;;
18336;SDS011;9294;51.106;7.028;2023-12-04T07:35:34;4.97;;;4.57;;
18336;SDS011;9294;51.106;7.028;2023-12-04T07:38:01;5.50;;;4.22;;
18336;SDS011;9294;51.106;7.028;2023-12-04T07:40:28;5.65;;;5.05;;
18336;SDS011;9294;51.106;7.028;2023-12-04T07:42:54;7.82;;;7.03;;
18336;SDS011;9294;51.106;7.028;2023-12-04T07:45:21;8.95;;;6.13;;
18336;SDS011;9294;51.106;7.028;2023-12-04T07:47:49;6.43;;;5.82;;
18336;SDS011;9294;51.106;7.028;2023-12-04T07:50:16;6.43;;;5.70;;
18336;SDS011;9294;51.106;7.028;2023-12-04T07:52:44;7.20;;;5.57;;
18336;SDS011;9294;51.106;7.028;2023-12-04T07:55:11;7.70;;;5.65;;
18336;SDS011;9294;51.106;7.028;2023-12-04T07:57:37;7.45;;;5.60;;
18336;SDS011;9294;51.106;7.028;2023-12-04T08:00:04;7.85;;;5.88;;
18336;SDS011;9294;51.106;7.028;2023-12-04T08:02:32;6.78;;;5.43;;
18336;SDS011;9294;51.106;7.028;2023-12-04T08:04:59;6.40;;;5.22;;
18336;SDS011;9294;51.106;7.028;2023-12-04T08:07:25;7.28;;;5.70;;
18336;SDS011;9294;51.106;7.028;2023-12-04T08:09:53;6.72;;;4.78;;
18336;SDS011;9294;51.106;7.028;2023-12-04T08:12:20;6.22;;;5.35;;
18336;SDS011;9294;51.106;7.028;2023-12-04T08:14:47;7.28;;;6.05;;
18336;SDS011;9294;51.106;7.028;2023-12-04T08:17:14;6.15;;;5.18;;
18336;SDS011;9294;51.106;7.028;2023-12-04T08:19:40;7.90;;;4.93;;
18336;SDS011;9294;51.106;7.028;2023-12-04T08:22:07;5.30;;;4.90;;
18336;SDS011;9294;51.106;7.028;2023-12-04T08:24:34;5.95;;;5.22;;
18336;SDS011;9294;51.106;7.028;2023-12-04T08:27:02;7.93;;;5.15;;
18336;SDS011;9294;51.106;7.028;2023-12-04T08:29:29;9.50;;;4.53;;
18336;SDS011;9294;51.106;7.028;2023-12-04T08:31:55;5.35;;;4.65;;
18336;SDS011;9294;51.106;7.028;2023-12-04T08:34:22;5.15;;;4.75;;
18336;SDS011;9294;51.106;7.028;2023-12-04T08:36:49;6.43;;;4.50;;
18336;SDS011;9294;51.106;7.028;2023-12-04T08:39:16;4.72;;;4.32;;
18336;SDS011;9294;51.106;7.028;2023-12-04T08:41:44;9.73;;;4.97;;
18336;SDS011;9294;51.106;7.028;2023-12-04T08:44:13;6.32;;;4.20;;
18336;SDS011;9294;51.106;7.028;2023-12-04T08:46:40;7.82;;;4.43;;
18336;SDS011;9294;51.106;7.028;2023-12-04T08:49:07;8.13;;;5.00;;
18336;SDS011;9294;51.106;7.028;2023-12-04T08:51:34;8.63;;;4.70;;
18336;SDS011;9294;51.106;7.028;2023-12-04T08:54:01;9.27;;;4.95;;
18336;SDS011;9294;51.106;7.028;2023-12-04T08:56:28;6.72;;;4.82;;
18336;SDS011;9294;51.106;7.028;2023-12-04T08:58:55;8.70;;;4.65;;
18336;SDS011;9294;51.106;7.028;2023-12-04T09:01:24;9.15;;;5.18;;
18336;SDS011;9294;51.106;7.028;2023-12-04T09:03:51;7.60;;;4.30;;
18336;SDS011;9294;51.106;7.028;2023-12-04T09:06:18;9.27;;;4.65;;
18336;SDS011;9294;51.106;7.028;2023-12-04T09:08:45;9.45;;;4.82;;
18336;SDS011;9294;51.106;7.028;2023-12-04T09:11:11;11.15;;;4.63;;
18336;SDS011;9294;51.106;7.028;2023-12-04T09:13:39;7.55;;;4.55;;
18336;SDS011;9294;51.106;7.028;2023-12-04T09:16:06;6.90;;;4.32;;
18336;SDS011;9294;51.106;7.028;2023-12-04T09:18:35;7.78;;;4.20;;
18336;SDS011;9294;51.106;7.028;2023-12-04T09:21:02;6.75;;;4.13;;
18336;SDS011;9294;51.106;7.028;2023-12-04T09:23:29;7.43;;;4.40;;
18336;SDS011;9294;51.106;7.028;2023-12-04T09:25:56;5.03;;;4.10;;
18336;SDS011;9294;51.106;7.028;2023-12-04T09:28:23;8.35;;;4.18;;
18336;SDS011;9294;51.106;7.028;2023-12-04T09:30:49;8.40;;;4.00;;
18336;SDS011;9294;51.106;7.028;2023-12-04T09:33:16;8.68;;;4.40;;
18336;SDS011;9294;51.106;7.028;2023-12-04T09:35:44;7.85;;;4.65;;
18336;SDS011;9294;51.106;7.028;2023-12-04T09:38:11;5.75;;;4.10;;
18336;SDS011;9294;51.106;7.028;2023-12-04T09:40:38;3.67;;;3.38;;
18336;SDS011;9294;51.106;7.028;2023-12-04T09:43:05;9.65;;;4.07;;
18336;SDS011;9294;51.106;7.028;2023-12-04T09:45:32;4.18;;;3.38;;
18336;SDS011;9294;51.106;7.028;2023-12-04T09:47:58;4.93;;;4.07;;
18336;SDS011;9294;51.106;7.028;2023-12-04T09:50:25;4.72;;;4.15;;
18336;SDS011;9294;51.106;7.028;2023-12-04T09:52:53;5.97;;;4.00;;
18336;SDS011;9294;51.106;7.028;2023-12-04T09:55:25;6.93;;;3.78;;
18336;SDS011;9294;51.106;7.028;2023-12-04T09:57:52;4.10;;;3.80;;
18336;SDS011;9294;51.106;7.028;2023-12-04T10:00:23;6.13;;;4.20;;
18336;SDS011;9294;51.106;7.028;2023-12-04T10:02:50;4.53;;;3.90;;
18336;SDS011;9294;51.106;7.028;2023-12-04T10:05:17;4.38;;;3.80;;
18336;SDS011;9294;51.106;7.028;2023-12-04T10:07:46;4.72;;;3.40;;
18336;SDS011;9294;51.106;7.028;2023-12-04T10:10:14;3.92;;;3.63;;
18336;SDS011;9294;51.106;7.028;2023-12-04T10:12:42;4.43;;;3.47;;
18336;SDS011;9294;51.106;7.028;2023-12-04T10:15:10;3.95;;;3.65;;
18336;SDS011;9294;51.106;7.028;2023-12-04T10:17:37;4.53;;;3.47;;
18336;SDS011;9294;51.106;7.028;2023-12-04T10:20:06;3.90;;;3.60;;
18336;SDS011;9294;51.106;7.028;2023-12-04T10:22:37;3.85;;;3.55;;
18336;SDS011;9294;51.106;7.028;2023-12-04T10:25:14;4.22;;;3.20;;
18336;SDS011;9294;51.106;7.028;2023-12-04T10:27:43;4.22;;;3.92;;
18336;SDS011;9294;51.106;7.028;2023-12-04T10:30:10;3.92;;;3.63;;
18336;SDS011;9294;51.106;7.028;2023-12-04T10:32:49;3.30;;;3.00;;
18336;SDS011;9294;51.106;7.028;2023-12-04T10:35:19;4.80;;;3.20;;
18336;SDS011;9294;51.106;7.028;2023-12-04T10:37:46;6.18;;;3.58;;
18336;SDS011;9294;51.106;7.028;2023-12-04T10:40:14;4.68;;;3.42;;
18336;SDS011;9294;51.106;7.028;2023-12-04T10:42:49;4.18;;;3.05;;
18336;SDS011;9294;51.106;7.028;2023-12-04T10:45:15;8.27;;;3.60;;
18336;SDS011;9294;51.106;7.028;2023-12-04T10:47:43;6.10;;;3.58;;
18336;SDS011;9294;51.106;7.028;2023-12-04T10:50:11;3.63;;;3.35;;
18336;SDS011;9294;51.106;7.028;2023-12-04T10:52:39;4.93;;;2.75;;
18336;SDS011;9294;51.106;7.028;2023-12-04T10:55:08;3.53;;;3.22;;
18336;SDS011;9294;51.106;7.028;2023-12-04T10:57:39;3.92;;;3.00;;
18336;SDS011;9294;51.106;7.028;2023-12-04T11:00:09;4.88;;;3.15;;
18336;SDS011;9294;51.106;7.028;2023-12-04T11:02:42;3.35;;;3.15;;
18336;SDS011;9294;51.106;7.028;2023-12-04T11:05:13;4.05;;;3.65;;
18336;SDS011;9294;51.106;7.028;2023-12-04T11:07:44;5.43;;;3.83;;
18336;SDS011;9294;51.106;7.028;2023-12-04T11:10:14;4.72;;;3.92;;
18336;SDS011;9294;51.106;7.028;2023-12-04T11:12:44;3.33;;;3.03;;
18336;SDS011;9294;51.106;7.028;2023-12-04T11:15:14;3.45;;;3.15;;
18336;SDS011;9294;51.106;7.028;2023-12-04T11:17:44;3.58;;;3.20;;
18336;SDS011;9294;51.106;7.028;2023-12-04T11:20:17;3.30;;;3.10;;
18336;SDS011;9294;51.106;7.028;2023-12-04T11:22:46;6.80;;;3.50;;
18336;SDS011;9294;51.106;7.028;2023-12-04T11:25:14;3.47;;;3.17;;
18336;SDS011;9294;51.106;7.028;2023-12-04T11:27:42;4.13;;;3.78;;
18336;SDS011;9294;51.106;7.028;2023-12-04T11:30:11;3.60;;;3.30;;
18336;SDS011;9294;51.106;7.028;2023-12-04T11:32:45;3.83;;;3.35;;
18336;SDS011;9294;51.106;7.028;2023-12-04T11:35:12;3.40;;;3.10;;
18336;SDS011;9294;51.106;7.028;2023-12-04T11:37:42;4.05;;;2.95;;
18336;SDS011;9294;51.106;7.028;2023-12-04T11:40:11;2.92;;;2.72;;
18336;SDS011;9294;51.106;7.028;2023-12-04T11:42:38;2.90;;;2.80;;
18336;SDS011;9294;51.106;7.028;2023-12-04T11:45:07;4.30;;;3.08;;
18336;SDS011;9294;51.106;7.028;2023-12-04T11:47:50;3.10;;;2.85;;
18336;SDS011;9294;51.106;7.028;2023-12-04T11:50:21;3.72;;;2.85;;
18336;SDS011;9294;51.106;7.028;2023-12-04T11:52:49;5.95;;;3.28;;
18336;SDS011;9294;51.106;7.028;2023-12-04T11:55:16;3.00;;;2.80;;
18336;SDS011;9294;51.106;7.028;2023-12-04T11:57:44;3.60;;;3.40;;
18336;SDS011;9294;51.106;7.028;2023-12-04T12:00:20;3.42;;;3.22;;
18336;SDS011;9294;51.106;7.028;2023-12-04T12:03:00;3.60;;;3.25;;
18336;SDS011;9294;51.106;7.028;2023-12-04T12:05:29;4.30;;;3.45;;
18336;SDS011;9294;51.106;7.028;2023-12-04T12:07:59;3.47;;;3.20;;
18336;SDS011;9294;51.106;7.028;2023-12-04T12:10:27;4.22;;;3.63;;
18336;SDS011;9294;51.106;7.028;2023-12-04T12:12:54;4.32;;;2.75;;
18336;SDS011;9294;51.106;7.028;2023-12-04T12:15:22;8.23;;;3.50;;
18336;SDS011;9294;51.106;7.028;2023-12-04T12:17:49;4.47;;;2.90;;
18336;SDS011;9294;51.106;7.028;2023-12-04T12:20:16;3.15;;;2.75;;
18336;SDS011;9294;51.106;7.028;2023-12-04T12:22:44;3.35;;;3.03;;
18336;SDS011;9294;51.106;7.028;2023-12-04T12:25:11;2.97;;;2.78;;
18336;SDS011;9294;51.106;7.028;2023-12-04T12:27:38;5.32;;;3.10;;
18336;SDS011;9294;51.106;7.028;2023-12-04T12:30:06;2.95;;;2.80;;
18336;SDS011;9294;51.106;7.028;2023-12-04T12:32:34;3.03;;;2.50;;
18336;SDS011;9294;51.106;7.028;2023-12-04T12:35:01;3.28;;;3.08;;
18336;SDS011;9294;51.106;7.028;2023-12-04T12:37:28;3.08;;;2.88;;
18336;SDS011;9294;51.106;7.028;2023-12-04T12:39:55;3.10;;;2.90;;
18336;SDS011;9294;51.106;7.028;2023-12-04T12:42:23;3.15;;;3.03;;
18336;SDS011;9294;51.106;7.028;2023-12-04T12:44:51;3.08;;;2.78;;
18336;SDS011;9294;51.106;7.028;2023-12-04T12:47:18;3.25;;;2.83;;
18336;SDS011;9294;51.106;7.028;2023-12-04T12:49:46;3.50;;;2.95;;
18336;SDS011;9294;51.106;7.028;2023-12-04T12:52:15;6.20;;;2.70;;
18336;SDS011;9294;51.106;7.028;2023-12-04T12:54:42;3.50;;;3.05;;
18336;SDS011;9294;51.106;7.028;2023-12-04T12:57:10;7.90;;;3.30;;
18336;SDS011;9294;51.106;7.028;2023-12-04T12:59:37;8.02;;;3.28;;
18336;SDS011;9294;51.106;7.028;2023-12-04T13:02:05;5.78;;;2.90;;
18336;SDS011;9294;51.106;7.028;2023-12-04T13:04:35;3.58;;;2.75;;
18336;SDS011;9294;51.106;7.028;2023-12-04T13:07:04;5.85;;;2.83;;
18336;SDS011;9294;51.106;7.028;2023-12-04T13:09:31;4.82;;;2.88;;
18336;SDS011;9294;51.106;7.028;2023-12-04T13:11:58;4.07;;;3.10;;
18336;SDS011;9294;51.106;7.028;2023-12-04T13:14:25;5.45;;;3.10;;
18336;SDS011;9294;51.106;7.028;2023-12-04T13:16:52;5.15;;;3.28;;
18336;SDS011;9294;51.106;7.028;2023-12-04T13:19:21;5.35;;;2.60;;
18336;SDS011;9294;51.106;7.028;2023-12-04T13:21:47;8.75;;;3.03;;
18336;SDS011;9294;51.106;7.028;2023-12-04T13:24:16;3.40;;;2.90;;
18336;SDS011;9294;51.106;7.028;2023-12-04T13:26:43;5.95;;;3.05;;
18336;SDS011;9294;51.106;7.028;2023-12-04T13:29:09;6.07;;;2.92;;
18336;SDS011;9294;51.106;7.028;2023-12-04T13:31:36;4.45;;;2.50;;
18336;SDS011;9294;51.106;7.028;2023-12-04T13:34:03;3.25;;;2.97;;
18336;SDS011;9294;51.106;7.028;2023-12-04T13:36:31;5.00;;;2.72;;
18336;SDS011;9294;51.106;7.028;2023-12-04T13:38:58;3.38;;;2.78;;
18336;SDS011;9294;51.106;7.028;2023-12-04T13:41:26;5.82;;;2.72;;
18336;SDS011;9294;51.106;7.028;2023-12-04T13:44:10;4.25;;;2.65;;
18336;SDS011;9294;51.106;7.028;2023-12-04T13:46:40;3.92;;;2.63;;
18336;SDS011;9294;51.106;7.028;2023-12-04T13:49:07;2.92;;;2.72;;
18336;SDS011;9294;51.106;7.028;2023-12-04T13:51:33;5.10;;;2.92;;
18336;SDS011;9294;51.106;7.028;2023-12-04T13:54:05;2.78;;;2.60;;
18336;SDS011;9294;51.106;7.028;2023-12-04T13:56:46;3.40;;;2.13;;
18336;SDS011;9294;51.106;7.028;2023-12-04T13:59:18;2.80;;;2.47;;
18336;SDS011;9294;51.106;7.028;2023-12-04T14:01:46;2.78;;;2.47;;
18336;SDS011;9294;51.106;7.028;2023-12-04T14:04:14;2.95;;;2.42;;
18336;SDS011;9294;51.106;7.028;2023-12-04T14:06:41;3.05;;;2.10;;
18336;SDS011;9294;51.106;7.028;2023-12-04T14:09:08;3.53;;;2.60;;
18336;SDS011;9294;51.106;7.028;2023-12-04T14:11:39;3.03;;;2.50;;
18336;SDS011;9294;51.106;7.028;2023-12-04T14:14:08;2.50;;;2.30;;
18336;SDS011;9294;51.106;7.028;2023-12-04T14:16:34;2.38;;;2.20;;
18336;SDS011;9294;51.106;7.028;2023-12-04T14:19:01;2.50;;;2.30;;
18336;SDS011;9294;51.106;7.028;2023-12-04T14:21:28;2.72;;;2.53;;
18336;SDS011;9294;51.106;7.028;2023-12-04T14:23:54;2.80;;;2.60;;
18336;SDS011;9294;51.106;7.028;2023-12-04T14:26:21;4.45;;;2.40;;
18336;SDS011;9294;51.106;7.028;2023-12-04T14:28:48;2.33;;;2.03;;
18336;SDS011;9294;51.106;7.028;2023-12-04T14:31:16;2.70;;;2.50;;
18336;SDS011;9294;51.106;7.028;2023-12-04T14:33:43;2.10;;;2.00;;
18336;SDS011;9294;51.106;7.028;2023-12-04T14:36:10;2.38;;;2.28;;
18336;SDS011;9294;51.106;7.028;2023-12-04T14:38:38;2.17;;;2.08;;
18336;SDS011;9294;51.106;7.028;2023-12-04T14:41:05;2.42;;;2.25;;
18336;SDS011;9294;51.106;7.028;2023-12-04T14:43:34;2.45;;;2.35;;
18336;SDS011;9294;51.106;7.028;2023-12-04T14:46:01;2.53;;;2.42;;
18336;SDS011;9294;51.106;7.028;2023-12-04T14:48:29;2.20;;;2.00;;
18336;SDS011;9294;51.106;7.028;2023-12-04T14:50:56;2.63;;;2.38;;
18336;SDS011;9294;51.106;7.028;2023-12-04T14:53:23;2.40;;;2.25;;
18336;SDS011;9294;51.106;7.028;2023-12-04T14:55:55;2.65;;;2.25;;
18336;SDS011;9294;51.106;7.028;2023-12-04T14:58:54;2.85;;;2.35;;
18336;SDS011;9294;51.106;7.028;2023-12-04T15:02:03;2.85;;;2.20;;
18336;SDS011;9294;51.106;7.028;2023-12-04T15:05:13;2.05;;;1.95;;